sensor_id;sensor_type;location;lat;lon;timestamp;P1;durP1;ratioP1;P2;durP2;ratioP2
16516;SDS011;8371;52.272;9.746;2023-06-22T00:01:54;6.73;;;3.83;;
16516;SDS011;8371;52.272;9.746;2023-06-22T00:04:19;3.57;;;3.47;;
16516;SDS011;8371;52.272;9.746;2023-06-22T00:06:45;4.00;;;3.67;;
16516;SDS011;8371;52.272;9.746;2023-06-22T00:09:11;3.33;;;3.13;;
16516;SDS011;8371;52.272;9.746;2023-06-22T00:11:36;3.87;;;3.70;;
16516;SDS011;8371;52.272;9.746;2023-06-22T00:14:03;3.77;;;3.57;;
16516;SDS011;8371;52.272;9.746;2023-06-22T00:16:29;3.67;;;3.47;;
16516;SDS011;8371;52.272;9.746;2023-06-22T00:18:55;3.27;;;3.17;;
16516;SDS011;8371;52.272;9.746;2023-06-22T00:21:23;4.40;;;4.00;;
16516;SDS011;8371;52.272;9.746;2023-06-22T00:23:49;4.37;;;4.07;;
16516;SDS011;8371;52.272;9.746;2023-06-22T00:26:14;3.90;;;3.70;;
16516;SDS011;8371;52.272;9.746;2023-06-22T00:28:40;5.27;;;3.60;;
16516;SDS011;8371;52.272;9.746;2023-06-22T00:31:06;6.03;;;4.30;;
16516;SDS011;8371;52.272;9.746;2023-06-22T00:33:31;11.27;;;3.47;;
16516;SDS011;8371;52.272;9.746;2023-06-22T00:35:57;5.27;;;3.57;;
16516;SDS011;8371;52.272;9.746;2023-06-22T00:38:23;4.00;;;3.63;;
16516;SDS011;8371;52.272;9.746;2023-06-22T00:40:48;5.43;;;3.57;;
16516;SDS011;8371;52.272;9.746;2023-06-22T00:43:14;5.13;;;3.00;;
16516;SDS011;8371;52.272;9.746;2023-06-22T00:45:40;2.90;;;2.80;;
16516;SDS011;8371;52.272;9.746;2023-06-22T00:48:05;3.07;;;2.97;;
16516;SDS011;8371;52.272;9.746;2023-06-22T00:50:32;3.40;;;3.20;;
16516;SDS011;8371;52.272;9.746;2023-06-22T00:53:03;3.70;;;3.40;;
16516;SDS011;8371;52.272;9.746;2023-06-22T00:55:35;5.37;;;3.43;;
16516;SDS011;8371;52.272;9.746;2023-06-22T00:58:07;4.37;;;3.97;;
16516;SDS011;8371;52.272;9.746;2023-06-22T01:00:35;4.27;;;3.40;;
16516;SDS011;8371;52.272;9.746;2023-06-22T01:03:01;3.97;;;3.67;;
16516;SDS011;8371;52.272;9.746;2023-06-22T01:05:28;4.13;;;3.30;;
16516;SDS011;8371;52.272;9.746;2023-06-22T01:10:59;3.80;;;3.40;;
16516;SDS011;8371;52.272;9.746;2023-06-22T01:16:16;4.00;;;3.13;;
16516;SDS011;8371;52.272;9.746;2023-06-22T01:18:52;7.30;;;3.30;;
16516;SDS011;8371;52.272;9.746;2023-06-22T01:21:22;8.17;;;3.03;;
16516;SDS011;8371;52.272;9.746;2023-06-22T01:24:08;4.53;;;2.93;;
16516;SDS011;8371;52.272;9.746;2023-06-22T01:26:45;4.93;;;3.37;;
16516;SDS011;8371;52.272;9.746;2023-06-22T01:29:21;10.97;;;3.47;;
16516;SDS011;8371;52.272;9.746;2023-06-22T01:31:49;3.33;;;3.10;;
16516;SDS011;8371;52.272;9.746;2023-06-22T01:34:16;3.00;;;2.70;;
16516;SDS011;8371;52.272;9.746;2023-06-22T01:36:43;3.40;;;3.17;;
16516;SDS011;8371;52.272;9.746;2023-06-22T01:39:09;4.50;;;3.80;;
16516;SDS011;8371;52.272;9.746;2023-06-22T01:41:36;3.73;;;3.23;;
16516;SDS011;8371;52.272;9.746;2023-06-22T01:44:04;3.73;;;3.43;;
16516;SDS011;8371;52.272;9.746;2023-06-22T01:46:31;5.73;;;3.33;;
16516;SDS011;8371;52.272;9.746;2023-06-22T01:48:58;4.67;;;3.00;;
16516;SDS011;8371;52.272;9.746;2023-06-22T01:51:24;4.37;;;3.40;;
16516;SDS011;8371;52.272;9.746;2023-06-22T01:53:50;3.70;;;3.50;;
16516;SDS011;8371;52.272;9.746;2023-06-22T01:56:16;3.47;;;3.37;;
16516;SDS011;8371;52.272;9.746;2023-06-22T01:58:46;3.90;;;3.70;;
16516;SDS011;8371;52.272;9.746;2023-06-22T02:01:20;4.03;;;3.70;;
16516;SDS011;8371;52.272;9.746;2023-06-22T02:03:49;3.50;;;3.40;;
16516;SDS011;8371;52.272;9.746;2023-06-22T02:06:18;6.63;;;4.00;;
16516;SDS011;8371;52.272;9.746;2023-06-22T02:08:49;4.90;;;4.33;;
16516;SDS011;8371;52.272;9.746;2023-06-22T02:11:18;3.37;;;3.27;;
16516;SDS011;8371;52.272;9.746;2023-06-22T02:13:47;4.33;;;3.70;;
16516;SDS011;8371;52.272;9.746;2023-06-22T02:16:14;5.63;;;4.07;;
16516;SDS011;8371;52.272;9.746;2023-06-22T02:18:47;7.87;;;3.63;;
16516;SDS011;8371;52.272;9.746;2023-06-22T02:21:21;3.40;;;3.30;;
16516;SDS011;8371;52.272;9.746;2023-06-22T02:23:45;4.07;;;3.87;;
16516;SDS011;8371;52.272;9.746;2023-06-22T02:26:11;4.07;;;3.67;;
16516;SDS011;8371;52.272;9.746;2023-06-22T02:28:37;5.00;;;3.30;;
16516;SDS011;8371;52.272;9.746;2023-06-22T02:31:03;5.87;;;3.27;;
16516;SDS011;8371;52.272;9.746;2023-06-22T02:33:29;4.63;;;3.33;;
16516;SDS011;8371;52.272;9.746;2023-06-22T02:35:54;9.37;;;3.90;;
16516;SDS011;8371;52.272;9.746;2023-06-22T02:38:20;3.67;;;3.47;;
16516;SDS011;8371;52.272;9.746;2023-06-22T02:40:46;3.97;;;3.77;;
16516;SDS011;8371;52.272;9.746;2023-06-22T02:43:12;4.80;;;4.00;;
16516;SDS011;8371;52.272;9.746;2023-06-22T02:45:38;10.43;;;3.70;;
16516;SDS011;8371;52.272;9.746;2023-06-22T02:48:04;5.30;;;3.63;;
16516;SDS011;8371;52.272;9.746;2023-06-22T02:50:30;5.40;;;3.17;;
16516;SDS011;8371;52.272;9.746;2023-06-22T02:52:56;3.13;;;2.83;;
16516;SDS011;8371;52.272;9.746;2023-06-22T02:55:21;3.90;;;3.57;;
16516;SDS011;8371;52.272;9.746;2023-06-22T02:57:48;4.93;;;3.63;;
16516;SDS011;8371;52.272;9.746;2023-06-22T03:00:16;3.27;;;3.07;;
16516;SDS011;8371;52.272;9.746;2023-06-22T03:02:45;8.97;;;3.53;;
16516;SDS011;8371;52.272;9.746;2023-06-22T03:05:12;4.77;;;3.00;;
16516;SDS011;8371;52.272;9.746;2023-06-22T03:07:42;4.87;;;3.20;;
16516;SDS011;8371;52.272;9.746;2023-06-22T03:10:08;3.90;;;3.53;;
16516;SDS011;8371;52.272;9.746;2023-06-22T03:12:36;4.40;;;3.43;;
16516;SDS011;8371;52.272;9.746;2023-06-22T03:15:04;6.13;;;4.10;;
16516;SDS011;8371;52.272;9.746;2023-06-22T03:17:31;6.13;;;3.57;;
16516;SDS011;8371;52.272;9.746;2023-06-22T03:19:56;5.80;;;3.47;;
16516;SDS011;8371;52.272;9.746;2023-06-22T03:22:22;4.00;;;3.80;;
16516;SDS011;8371;52.272;9.746;2023-06-22T03:24:48;6.20;;;3.43;;
16516;SDS011;8371;52.272;9.746;2023-06-22T03:27:13;5.80;;;3.33;;
16516;SDS011;8371;52.272;9.746;2023-06-22T03:29:39;4.83;;;3.93;;
16516;SDS011;8371;52.272;9.746;2023-06-22T03:32:05;4.27;;;3.80;;
16516;SDS011;8371;52.272;9.746;2023-06-22T03:34:32;14.03;;;3.80;;
16516;SDS011;8371;52.272;9.746;2023-06-22T03:37:03;4.93;;;3.30;;
16516;SDS011;8371;52.272;9.746;2023-06-22T03:39:29;4.00;;;3.70;;
16516;SDS011;8371;52.272;9.746;2023-06-22T03:41:55;6.30;;;3.40;;
16516;SDS011;8371;52.272;9.746;2023-06-22T03:44:21;4.10;;;3.53;;
16516;SDS011;8371;52.272;9.746;2023-06-22T03:46:46;2.63;;;2.53;;
16516;SDS011;8371;52.272;9.746;2023-06-22T03:49:12;4.87;;;3.97;;
16516;SDS011;8371;52.272;9.746;2023-06-22T03:51:38;4.83;;;4.40;;
16516;SDS011;8371;52.272;9.746;2023-06-22T03:54:04;5.97;;;3.87;;
16516;SDS011;8371;52.272;9.746;2023-06-22T03:56:30;4.33;;;3.93;;
16516;SDS011;8371;52.272;9.746;2023-06-22T03:58:55;5.20;;;4.90;;
16516;SDS011;8371;52.272;9.746;2023-06-22T04:01:21;4.57;;;4.37;;
16516;SDS011;8371;52.272;9.746;2023-06-22T04:03:47;5.03;;;4.17;;
16516;SDS011;8371;52.272;9.746;2023-06-22T04:06:15;5.13;;;4.67;;
16516;SDS011;8371;52.272;9.746;2023-06-22T04:08:40;4.90;;;4.53;;
16516;SDS011;8371;52.272;9.746;2023-06-22T04:11:06;5.00;;;4.80;;
16516;SDS011;8371;52.272;9.746;2023-06-22T04:13:32;5.13;;;4.90;;
16516;SDS011;8371;52.272;9.746;2023-06-22T04:15:57;4.20;;;3.90;;
16516;SDS011;8371;52.272;9.746;2023-06-22T04:18:23;6.10;;;4.33;;
16516;SDS011;8371;52.272;9.746;2023-06-22T04:20:49;5.20;;;4.60;;
16516;SDS011;8371;52.272;9.746;2023-06-22T04:23:15;5.13;;;3.93;;
16516;SDS011;8371;52.272;9.746;2023-06-22T04:25:40;4.80;;;4.53;;
16516;SDS011;8371;52.272;9.746;2023-06-22T04:28:06;4.53;;;4.33;;
16516;SDS011;8371;52.272;9.746;2023-06-22T04:30:33;4.80;;;4.50;;
16516;SDS011;8371;52.272;9.746;2023-06-22T04:32:59;5.87;;;4.60;;
16516;SDS011;8371;52.272;9.746;2023-06-22T04:35:25;4.23;;;3.97;;
16516;SDS011;8371;52.272;9.746;2023-06-22T04:37:52;5.47;;;5.07;;
16516;SDS011;8371;52.272;9.746;2023-06-22T04:40:24;5.10;;;4.77;;
16516;SDS011;8371;52.272;9.746;2023-06-22T04:42:48;5.97;;;5.63;;
16516;SDS011;8371;52.272;9.746;2023-06-22T04:45:19;6.53;;;5.40;;
16516;SDS011;8371;52.272;9.746;2023-06-22T04:47:46;5.37;;;5.17;;
16516;SDS011;8371;52.272;9.746;2023-06-22T04:50:12;8.37;;;5.20;;
16516;SDS011;8371;52.272;9.746;2023-06-22T04:52:38;8.67;;;5.03;;
16516;SDS011;8371;52.272;9.746;2023-06-22T04:55:04;5.67;;;4.90;;
16516;SDS011;8371;52.272;9.746;2023-06-22T04:57:30;5.60;;;5.23;;
16516;SDS011;8371;52.272;9.746;2023-06-22T05:00:02;5.50;;;5.20;;
16516;SDS011;8371;52.272;9.746;2023-06-22T05:02:38;5.83;;;5.43;;
16516;SDS011;8371;52.272;9.746;2023-06-22T05:05:04;9.90;;;5.93;;
16516;SDS011;8371;52.272;9.746;2023-06-22T05:07:33;6.13;;;5.60;;
16516;SDS011;8371;52.272;9.746;2023-06-22T05:09:59;5.77;;;5.33;;
16516;SDS011;8371;52.272;9.746;2023-06-22T05:12:27;6.80;;;6.40;;
16516;SDS011;8371;52.272;9.746;2023-06-22T05:14:53;6.57;;;6.17;;
16516;SDS011;8371;52.272;9.746;2023-06-22T05:17:19;6.87;;;6.37;;
16516;SDS011;8371;52.272;9.746;2023-06-22T05:19:45;6.60;;;6.17;;
16516;SDS011;8371;52.272;9.746;2023-06-22T05:22:12;6.50;;;6.30;;
16516;SDS011;8371;52.272;9.746;2023-06-22T05:24:38;6.50;;;6.30;;
16516;SDS011;8371;52.272;9.746;2023-06-22T05:27:04;6.63;;;6.23;;
16516;SDS011;8371;52.272;9.746;2023-06-22T05:29:30;6.53;;;6.13;;
16516;SDS011;8371;52.272;9.746;2023-06-22T05:31:56;6.80;;;6.50;;
16516;SDS011;8371;52.272;9.746;2023-06-22T05:34:21;7.47;;;6.80;;
16516;SDS011;8371;52.272;9.746;2023-06-22T05:36:47;6.93;;;6.43;;
16516;SDS011;8371;52.272;9.746;2023-06-22T05:39:13;7.60;;;6.87;;
16516;SDS011;8371;52.272;9.746;2023-06-22T05:41:40;7.20;;;6.90;;
16516;SDS011;8371;52.272;9.746;2023-06-22T05:44:06;7.90;;;7.13;;
16516;SDS011;8371;52.272;9.746;2023-06-22T05:46:32;6.80;;;6.50;;
16516;SDS011;8371;52.272;9.746;2023-06-22T05:48:57;7.10;;;6.87;;
16516;SDS011;8371;52.272;9.746;2023-06-22T05:51:23;7.07;;;6.73;;
16516;SDS011;8371;52.272;9.746;2023-06-22T05:53:49;6.73;;;6.53;;
16516;SDS011;8371;52.272;9.746;2023-06-22T05:56:15;6.23;;;6.03;;
16516;SDS011;8371;52.272;9.746;2023-06-22T05:58:41;7.17;;;6.87;;
16516;SDS011;8371;52.272;9.746;2023-06-22T06:01:07;7.23;;;6.73;;
16516;SDS011;8371;52.272;9.746;2023-06-22T06:03:32;6.83;;;6.63;;
16516;SDS011;8371;52.272;9.746;2023-06-22T06:05:58;6.30;;;6.10;;
16516;SDS011;8371;52.272;9.746;2023-06-22T06:11:00;6.47;;;6.17;;
16516;SDS011;8371;52.272;9.746;2023-06-22T06:13:25;6.13;;;5.83;;
16516;SDS011;8371;52.272;9.746;2023-06-22T06:15:51;6.40;;;6.00;;
16516;SDS011;8371;52.272;9.746;2023-06-22T06:18:18;6.83;;;6.53;;
16516;SDS011;8371;52.272;9.746;2023-06-22T06:20:44;7.37;;;6.63;;
16516;SDS011;8371;52.272;9.746;2023-06-22T06:23:10;7.50;;;7.10;;
16516;SDS011;8371;52.272;9.746;2023-06-22T06:25:35;7.10;;;6.83;;
16516;SDS011;8371;52.272;9.746;2023-06-22T06:28:01;7.60;;;7.30;;
16516;SDS011;8371;52.272;9.746;2023-06-22T06:30:27;6.53;;;6.33;;
16516;SDS011;8371;52.272;9.746;2023-06-22T06:32:52;6.70;;;6.40;;
16516;SDS011;8371;52.272;9.746;2023-06-22T06:35:18;6.33;;;6.03;;
16516;SDS011;8371;52.272;9.746;2023-06-22T06:37:45;7.40;;;7.10;;
16516;SDS011;8371;52.272;9.746;2023-06-22T06:40:12;6.07;;;5.77;;
16516;SDS011;8371;52.272;9.746;2023-06-22T06:42:47;6.10;;;5.90;;
16516;SDS011;8371;52.272;9.746;2023-06-22T06:45:12;6.03;;;5.83;;
16516;SDS011;8371;52.272;9.746;2023-06-22T06:47:40;6.13;;;5.73;;
16516;SDS011;8371;52.272;9.746;2023-06-22T06:50:06;6.10;;;5.80;;
16516;SDS011;8371;52.272;9.746;2023-06-22T06:52:32;5.10;;;4.93;;
16516;SDS011;8371;52.272;9.746;2023-06-22T06:54:58;5.00;;;4.90;;
16516;SDS011;8371;52.272;9.746;2023-06-22T06:57:24;6.10;;;5.90;;
16516;SDS011;8371;52.272;9.746;2023-06-22T06:59:52;5.43;;;5.23;;
16516;SDS011;8371;52.272;9.746;2023-06-22T07:02:18;5.60;;;5.40;;
16516;SDS011;8371;52.272;9.746;2023-06-22T07:04:44;5.43;;;5.23;;
16516;SDS011;8371;52.272;9.746;2023-06-22T07:07:10;5.67;;;5.33;;
16516;SDS011;8371;52.272;9.746;2023-06-22T07:09:35;6.33;;;4.83;;
16516;SDS011;8371;52.272;9.746;2023-06-22T07:12:01;5.63;;;5.17;;
16516;SDS011;8371;52.272;9.746;2023-06-22T07:14:27;4.93;;;4.73;;
16516;SDS011;8371;52.272;9.746;2023-06-22T07:16:52;5.03;;;4.83;;
16516;SDS011;8371;52.272;9.746;2023-06-22T07:19:23;4.57;;;4.43;;
16516;SDS011;8371;52.272;9.746;2023-06-22T07:21:53;4.93;;;4.73;;
16516;SDS011;8371;52.272;9.746;2023-06-22T07:24:20;4.60;;;4.43;;
16516;SDS011;8371;52.272;9.746;2023-06-22T07:26:47;5.73;;;4.90;;
16516;SDS011;8371;52.272;9.746;2023-06-22T07:29:13;5.63;;;5.07;;
16516;SDS011;8371;52.272;9.746;2023-06-22T07:31:39;4.67;;;4.47;;
16516;SDS011;8371;52.272;9.746;2023-06-22T07:34:06;4.73;;;4.33;;
16516;SDS011;8371;52.272;9.746;2023-06-22T07:36:32;4.37;;;4.17;;
16516;SDS011;8371;52.272;9.746;2023-06-22T07:38:57;3.80;;;3.70;;
16516;SDS011;8371;52.272;9.746;2023-06-22T07:41:23;3.73;;;3.63;;
16516;SDS011;8371;52.272;9.746;2023-06-22T07:43:49;4.10;;;4.00;;
16516;SDS011;8371;52.272;9.746;2023-06-22T07:46:15;3.70;;;3.60;;
16516;SDS011;8371;52.272;9.746;2023-06-22T07:48:41;4.70;;;3.43;;
16516;SDS011;8371;52.272;9.746;2023-06-22T07:51:08;3.60;;;3.47;;
16516;SDS011;8371;52.272;9.746;2023-06-22T07:53:34;3.83;;;3.63;;
16516;SDS011;8371;52.272;9.746;2023-06-22T07:56:01;3.30;;;3.10;;
16516;SDS011;8371;52.272;9.746;2023-06-22T07:58:28;7.03;;;4.10;;
16516;SDS011;8371;52.272;9.746;2023-06-22T08:00:54;10.30;;;3.43;;
16516;SDS011;8371;52.272;9.746;2023-06-22T08:03:20;3.90;;;3.80;;
16516;SDS011;8371;52.272;9.746;2023-06-22T08:05:45;3.87;;;3.67;;
16516;SDS011;8371;52.272;9.746;2023-06-22T08:08:11;3.50;;;3.27;;
16516;SDS011;8371;52.272;9.746;2023-06-22T08:10:37;4.83;;;4.50;;
16516;SDS011;8371;52.272;9.746;2023-06-22T08:13:03;3.97;;;3.77;;
16516;SDS011;8371;52.272;9.746;2023-06-22T08:15:28;3.23;;;3.13;;
16516;SDS011;8371;52.272;9.746;2023-06-22T08:17:54;3.57;;;3.30;;
16516;SDS011;8371;52.272;9.746;2023-06-22T08:20:20;4.33;;;4.13;;
16516;SDS011;8371;52.272;9.746;2023-06-22T08:22:46;4.73;;;4.30;;
16516;SDS011;8371;52.272;9.746;2023-06-22T08:25:11;4.30;;;4.03;;
16516;SDS011;8371;52.272;9.746;2023-06-22T08:27:38;3.80;;;3.70;;
16516;SDS011;8371;52.272;9.746;2023-06-22T08:30:04;4.47;;;4.37;;
16516;SDS011;8371;52.272;9.746;2023-06-22T08:32:30;4.20;;;4.00;;
16516;SDS011;8371;52.272;9.746;2023-06-22T08:34:57;4.80;;;4.60;;
16516;SDS011;8371;52.272;9.746;2023-06-22T08:37:23;4.33;;;4.23;;
16516;SDS011;8371;52.272;9.746;2023-06-22T08:39:51;4.50;;;4.30;;
16516;SDS011;8371;52.272;9.746;2023-06-22T08:42:17;5.03;;;4.73;;
16516;SDS011;8371;52.272;9.746;2023-06-22T08:44:43;4.97;;;4.77;;
16516;SDS011;8371;52.272;9.746;2023-06-22T08:47:08;4.77;;;4.57;;
16516;SDS011;8371;52.272;9.746;2023-06-22T08:49:34;4.33;;;4.13;;
16516;SDS011;8371;52.272;9.746;2023-06-22T08:52:00;4.60;;;4.40;;
16516;SDS011;8371;52.272;9.746;2023-06-22T08:54:25;4.80;;;4.60;;
16516;SDS011;8371;52.272;9.746;2023-06-22T08:56:51;5.17;;;4.97;;
16516;SDS011;8371;52.272;9.746;2023-06-22T08:59:17;4.83;;;4.47;;
16516;SDS011;8371;52.272;9.746;2023-06-22T09:01:42;5.10;;;4.80;;
16516;SDS011;8371;52.272;9.746;2023-06-22T09:04:10;4.80;;;4.60;;
16516;SDS011;8371;52.272;9.746;2023-06-22T09:06:37;5.03;;;4.73;;
16516;SDS011;8371;52.272;9.746;2023-06-22T09:09:04;5.40;;;5.10;;
16516;SDS011;8371;52.272;9.746;2023-06-22T09:11:31;5.33;;;5.13;;
16516;SDS011;8371;52.272;9.746;2023-06-22T09:13:57;4.67;;;4.57;;
16516;SDS011;8371;52.272;9.746;2023-06-22T09:16:22;5.93;;;5.63;;
16516;SDS011;8371;52.272;9.746;2023-06-22T09:18:48;6.20;;;5.80;;
16516;SDS011;8371;52.272;9.746;2023-06-22T09:21:14;6.40;;;5.97;;
16516;SDS011;8371;52.272;9.746;2023-06-22T09:23:39;6.90;;;6.30;;
16516;SDS011;8371;52.272;9.746;2023-06-22T09:26:05;5.80;;;5.50;;
16516;SDS011;8371;52.272;9.746;2023-06-22T09:28:31;6.50;;;6.10;;
16516;SDS011;8371;52.272;9.746;2023-06-22T09:30:56;4.73;;;4.63;;
16516;SDS011;8371;52.272;9.746;2023-06-22T09:33:24;6.00;;;5.70;;
16516;SDS011;8371;52.272;9.746;2023-06-22T09:35:50;6.20;;;6.00;;
16516;SDS011;8371;52.272;9.746;2023-06-22T09:38:16;6.53;;;6.23;;
16516;SDS011;8371;52.272;9.746;2023-06-22T09:40:42;6.27;;;6.07;;
16516;SDS011;8371;52.272;9.746;2023-06-22T09:43:08;5.90;;;5.70;;
16516;SDS011;8371;52.272;9.746;2023-06-22T09:45:34;6.10;;;5.87;;
16516;SDS011;8371;52.272;9.746;2023-06-22T09:47:59;6.00;;;5.80;;
16516;SDS011;8371;52.272;9.746;2023-06-22T09:50:25;6.37;;;6.07;;
16516;SDS011;8371;52.272;9.746;2023-06-22T09:52:51;6.53;;;6.13;;
16516;SDS011;8371;52.272;9.746;2023-06-22T09:55:18;7.37;;;7.00;;
16516;SDS011;8371;52.272;9.746;2023-06-22T09:57:44;6.87;;;6.37;;
16516;SDS011;8371;52.272;9.746;2023-06-22T10:00:10;6.07;;;5.70;;
16516;SDS011;8371;52.272;9.746;2023-06-22T10:02:39;6.37;;;5.77;;
16516;SDS011;8371;52.272;9.746;2023-06-22T10:05:05;6.10;;;5.90;;
16516;SDS011;8371;52.272;9.746;2023-06-22T10:07:33;6.97;;;6.70;;
16516;SDS011;8371;52.272;9.746;2023-06-22T10:09:59;6.92;;;6.42;;
16516;SDS011;8371;52.272;9.746;2023-06-22T10:12:25;6.20;;;5.80;;
16516;SDS011;8371;52.272;9.746;2023-06-22T10:14:52;6.30;;;6.10;;
16516;SDS011;8371;52.272;9.746;2023-06-22T10:17:18;6.03;;;5.73;;
16516;SDS011;8371;52.272;9.746;2023-06-22T10:19:44;6.30;;;6.10;;
16516;SDS011;8371;52.272;9.746;2023-06-22T10:22:09;6.83;;;6.47;;
16516;SDS011;8371;52.272;9.746;2023-06-22T10:24:35;6.47;;;6.17;;
16516;SDS011;8371;52.272;9.746;2023-06-22T10:27:01;7.23;;;6.83;;
16516;SDS011;8371;52.272;9.746;2023-06-22T10:29:26;7.27;;;7.07;;
16516;SDS011;8371;52.272;9.746;2023-06-22T10:31:52;7.90;;;7.47;;
16516;SDS011;8371;52.272;9.746;2023-06-22T10:34:18;6.90;;;6.60;;
16516;SDS011;8371;52.272;9.746;2023-06-22T10:36:43;8.03;;;7.73;;
16516;SDS011;8371;52.272;9.746;2023-06-22T10:39:11;7.37;;;7.07;;
16516;SDS011;8371;52.272;9.746;2023-06-22T10:41:36;7.37;;;7.07;;
16516;SDS011;8371;52.272;9.746;2023-06-22T10:44:02;7.30;;;6.93;;
16516;SDS011;8371;52.272;9.746;2023-06-22T10:46:28;7.23;;;6.93;;
16516;SDS011;8371;52.272;9.746;2023-06-22T10:48:53;7.00;;;6.80;;
16516;SDS011;8371;52.272;9.746;2023-06-22T10:51:21;7.07;;;6.87;;
16516;SDS011;8371;52.272;9.746;2023-06-22T10:53:46;8.00;;;7.70;;
16516;SDS011;8371;52.272;9.746;2023-06-22T10:56:12;7.53;;;7.23;;
16516;SDS011;8371;52.272;9.746;2023-06-22T10:58:38;7.60;;;7.37;;
16516;SDS011;8371;52.272;9.746;2023-06-22T11:01:03;7.07;;;6.87;;
16516;SDS011;8371;52.272;9.746;2023-06-22T11:03:29;7.67;;;7.30;;
16516;SDS011;8371;52.272;9.746;2023-06-22T11:05:55;8.00;;;7.67;;
16516;SDS011;8371;52.272;9.746;2023-06-22T11:08:20;7.70;;;7.40;;
16516;SDS011;8371;52.272;9.746;2023-06-22T11:10:46;6.90;;;6.70;;
16516;SDS011;8371;52.272;9.746;2023-06-22T11:13:12;7.77;;;7.47;;
16516;SDS011;8371;52.272;9.746;2023-06-22T11:15:38;7.50;;;6.83;;
16516;SDS011;8371;52.272;9.746;2023-06-22T11:18:04;6.87;;;6.67;;
16516;SDS011;8371;52.272;9.746;2023-06-22T11:20:30;7.58;;;7.28;;
16516;SDS011;8371;52.272;9.746;2023-06-22T11:22:58;7.10;;;6.70;;
16516;SDS011;8371;52.272;9.746;2023-06-22T11:25:25;7.37;;;7.05;;
16516;SDS011;8371;52.272;9.746;2023-06-22T11:27:51;8.18;;;7.78;;
16516;SDS011;8371;52.272;9.746;2023-06-22T11:30:18;7.50;;;7.00;;
16516;SDS011;8371;52.272;9.746;2023-06-22T11:32:45;7.60;;;7.20;;
16516;SDS011;8371;52.272;9.746;2023-06-22T11:35:10;8.13;;;7.72;;
16516;SDS011;8371;52.272;9.746;2023-06-22T11:37:36;8.50;;;8.20;;
16516;SDS011;8371;52.272;9.746;2023-06-22T11:40:02;7.90;;;7.60;;
16516;SDS011;8371;52.272;9.746;2023-06-22T11:42:30;7.58;;;7.17;;
16516;SDS011;8371;52.272;9.746;2023-06-22T11:44:55;8.88;;;8.25;;
16516;SDS011;8371;52.272;9.746;2023-06-22T11:47:21;8.40;;;8.10;;
16516;SDS011;8371;52.272;9.746;2023-06-22T11:49:46;7.58;;;7.28;;
16516;SDS011;8371;52.272;9.746;2023-06-22T11:52:12;6.95;;;6.75;;
16516;SDS011;8371;52.272;9.746;2023-06-22T11:54:38;7.33;;;7.12;;
16516;SDS011;8371;52.272;9.746;2023-06-22T11:57:04;7.53;;;7.22;;
16516;SDS011;8371;52.272;9.746;2023-06-22T11:59:30;7.28;;;7.08;;
16516;SDS011;8371;52.272;9.746;2023-06-22T12:01:56;6.85;;;6.65;;
16516;SDS011;8371;52.272;9.746;2023-06-22T12:04:23;6.40;;;6.10;;
16516;SDS011;8371;52.272;9.746;2023-06-22T12:06:49;6.12;;;5.92;;
16516;SDS011;8371;52.272;9.746;2023-06-22T12:09:14;6.40;;;6.10;;
16516;SDS011;8371;52.272;9.746;2023-06-22T12:11:40;6.22;;;6.03;;
16516;SDS011;8371;52.272;9.746;2023-06-22T12:14:06;7.50;;;7.30;;
16516;SDS011;8371;52.272;9.746;2023-06-22T12:16:31;6.53;;;6.33;;
16516;SDS011;8371;52.272;9.746;2023-06-22T12:18:57;7.03;;;6.83;;
16516;SDS011;8371;52.272;9.746;2023-06-22T12:21:23;7.22;;;7.03;;
16516;SDS011;8371;52.272;9.746;2023-06-22T12:23:48;7.45;;;7.20;;
16516;SDS011;8371;52.272;9.746;2023-06-22T12:26:14;6.85;;;6.65;;
16516;SDS011;8371;52.272;9.746;2023-06-22T12:28:40;6.87;;;6.67;;
16516;SDS011;8371;52.272;9.746;2023-06-22T12:31:05;7.40;;;6.95;;
16516;SDS011;8371;52.272;9.746;2023-06-22T12:33:31;6.25;;;5.97;;
16516;SDS011;8371;52.272;9.746;2023-06-22T12:35:57;5.78;;;5.58;;
16516;SDS011;8371;52.272;9.746;2023-06-22T12:38:22;5.58;;;5.37;;
16516;SDS011;8371;52.272;9.746;2023-06-22T12:40:50;5.45;;;5.25;;
16516;SDS011;8371;52.272;9.746;2023-06-22T12:43:16;6.47;;;6.22;;
16516;SDS011;8371;52.272;9.746;2023-06-22T12:45:41;5.83;;;5.62;;
16516;SDS011;8371;52.272;9.746;2023-06-22T12:48:07;5.65;;;5.45;;
16516;SDS011;8371;52.272;9.746;2023-06-22T12:50:34;4.87;;;4.78;;
16516;SDS011;8371;52.272;9.746;2023-06-22T12:53:00;4.90;;;4.70;;
16516;SDS011;8371;52.272;9.746;2023-06-22T12:55:27;3.40;;;3.30;;
16516;SDS011;8371;52.272;9.746;2023-06-22T12:57:53;4.25;;;4.05;;
16516;SDS011;8371;52.272;9.746;2023-06-22T13:00:19;3.83;;;3.72;;
16516;SDS011;8371;52.272;9.746;2023-06-22T13:02:45;3.77;;;3.67;;
16516;SDS011;8371;52.272;9.746;2023-06-22T13:05:10;3.67;;;3.47;;
16516;SDS011;8371;52.272;9.746;2023-06-22T13:07:36;3.97;;;3.87;;
16516;SDS011;8371;52.272;9.746;2023-06-22T13:10:02;4.33;;;4.12;;
16516;SDS011;8371;52.272;9.746;2023-06-22T13:12:28;4.20;;;4.10;;
16516;SDS011;8371;52.272;9.746;2023-06-22T13:14:54;4.63;;;4.50;;
16516;SDS011;8371;52.272;9.746;2023-06-22T13:17:20;4.37;;;4.17;;
16516;SDS011;8371;52.272;9.746;2023-06-22T13:19:46;4.65;;;4.55;;
16516;SDS011;8371;52.272;9.746;2023-06-22T13:24:57;5.37;;;4.97;;
16516;SDS011;8371;52.272;9.746;2023-06-22T13:27:24;5.10;;;4.90;;
16516;SDS011;8371;52.272;9.746;2023-06-22T13:29:50;4.40;;;4.20;;
16516;SDS011;8371;52.272;9.746;2023-06-22T13:32:16;5.33;;;4.80;;
16516;SDS011;8371;52.272;9.746;2023-06-22T13:34:42;4.92;;;4.78;;
16516;SDS011;8371;52.272;9.746;2023-06-22T13:37:09;4.42;;;4.22;;
16516;SDS011;8371;52.272;9.746;2023-06-22T13:39:34;4.30;;;4.20;;
16516;SDS011;8371;52.272;9.746;2023-06-22T13:42:00;4.03;;;3.93;;
16516;SDS011;8371;52.272;9.746;2023-06-22T13:44:26;4.57;;;4.37;;
16516;SDS011;8371;52.272;9.746;2023-06-22T13:46:53;5.60;;;4.87;;
16516;SDS011;8371;52.272;9.746;2023-06-22T13:49:19;4.53;;;4.37;;
16516;SDS011;8371;52.272;9.746;2023-06-22T13:51:44;4.60;;;4.50;;
16516;SDS011;8371;52.272;9.746;2023-06-22T13:54:10;4.07;;;3.97;;
16516;SDS011;8371;52.272;9.746;2023-06-22T13:56:36;4.73;;;4.63;;
16516;SDS011;8371;52.272;9.746;2023-06-22T13:59:01;4.10;;;4.00;;
16516;SDS011;8371;52.272;9.746;2023-06-22T14:01:27;4.80;;;4.60;;
16516;SDS011;8371;52.272;9.746;2023-06-22T14:03:53;4.80;;;4.60;;
16516;SDS011;8371;52.272;9.746;2023-06-22T14:06:19;5.87;;;5.47;;
16516;SDS011;8371;52.272;9.746;2023-06-22T14:08:44;5.30;;;5.10;;
16516;SDS011;8371;52.272;9.746;2023-06-22T14:11:10;5.63;;;5.33;;
16516;SDS011;8371;52.272;9.746;2023-06-22T14:13:36;7.37;;;7.07;;
16516;SDS011;8371;52.272;9.746;2023-06-22T14:16:01;6.63;;;6.43;;
16516;SDS011;8371;52.272;9.746;2023-06-22T14:18:27;6.57;;;6.37;;
16516;SDS011;8371;52.272;9.746;2023-06-22T14:20:53;6.50;;;6.30;;
16516;SDS011;8371;52.272;9.746;2023-06-22T14:23:18;6.67;;;6.47;;
16516;SDS011;8371;52.272;9.746;2023-06-22T14:25:44;6.33;;;6.03;;
16516;SDS011;8371;52.272;9.746;2023-06-22T14:28:10;6.70;;;6.40;;
16516;SDS011;8371;52.272;9.746;2023-06-22T14:30:35;6.97;;;6.50;;
16516;SDS011;8371;52.272;9.746;2023-06-22T14:33:01;7.33;;;6.93;;
16516;SDS011;8371;52.272;9.746;2023-06-22T14:35:27;6.80;;;6.60;;
16516;SDS011;8371;52.272;9.746;2023-06-22T14:37:53;7.20;;;6.70;;
16516;SDS011;8371;52.272;9.746;2023-06-22T14:40:18;6.93;;;6.60;;
16516;SDS011;8371;52.272;9.746;2023-06-22T14:42:44;7.03;;;6.73;;
16516;SDS011;8371;52.272;9.746;2023-06-22T14:45:10;6.47;;;6.23;;
16516;SDS011;8371;52.272;9.746;2023-06-22T14:47:35;7.07;;;6.77;;
16516;SDS011;8371;52.272;9.746;2023-06-22T14:50:01;7.23;;;6.87;;
16516;SDS011;8371;52.272;9.746;2023-06-22T14:52:27;6.53;;;6.33;;
16516;SDS011;8371;52.272;9.746;2023-06-22T14:54:53;6.93;;;6.63;;
16516;SDS011;8371;52.272;9.746;2023-06-22T14:57:19;7.03;;;6.83;;
16516;SDS011;8371;52.272;9.746;2023-06-22T14:59:50;6.93;;;6.73;;
16516;SDS011;8371;52.272;9.746;2023-06-22T15:02:14;7.00;;;6.70;;
16516;SDS011;8371;52.272;9.746;2023-06-22T15:04:40;6.33;;;6.03;;
16516;SDS011;8371;52.272;9.746;2023-06-22T15:07:06;6.83;;;6.53;;